Flight Track Log - Related Links

Times and Time Zones

All times are in EDT time to prevent confusion due to time zone crossing. See the N53NW flight status page for this flight to view local times or setup timezone preferences in your user account.

Time Position Orientation Groundspeed Altitude Reporting Facility
EDT Latitude Longitude Course Direction KTS MPH feet Rate Location/Type
Fri 06:51:48 PM 39.2736 -106.8956 180° South 225 259 10,400  Level Denver Center
Fri 06:52:50 PM 39.2836 -106.9775 279° West 225 259 13,400 3,242 Climbing Denver Center
Fri 06:53:52 PM 39.2517 -107.0614 244° Southwest 248 285 17,100 3,145 Climbing Denver Center
Fri 06:54:54 PM 39.1833 -107.0617 180° South 248 285 19,900 1,887 Climbing Denver Center
Fri 06:55:56 PM 39.1111 -107.0606 179° South 260 299 21,000 532 Climbing Denver Center
Fri 06:56:58 PM 39.0208 -107.0578 179° South 308 354 21,000  Level Denver Center
Fri 06:57:00 PM 39.1361 -107.1167 180° South  Level FlightAware Approximate
Fri 06:58:00 PM 38.9319 -107.0564 179° South 315 362 21,000  Level Denver Center
Fri 06:59:02 PM 38.8414 -107.0522 178° South 315 362 21,000  Level Denver Center
Fri 07:00:04 PM 38.7528 -107.0500 179° South 316 364 21,000  Level Denver Center
Fri 07:01:05 PM 38.6458 -107.0461 178° South 317 365 21,000  Level Denver Center
Fri 07:02:07 PM 38.5575 -107.0431 178° South 317 365 21,000  Level Denver Center
Fri 07:03:09 PM 38.4697 -107.0403 179° South 314 361 21,000  Level Denver Center
Fri 07:04:11 PM 38.3947 -106.9769 146° Southeast 325 374 21,000  Level Denver Center
Fri 07:05:13 PM 38.3267 -106.8986 138° Southeast 327 376 21,000  Level Denver Center
Fri 07:06:15 PM 38.2522 -106.8150 139° Southeast 326 375 21,000  Level Denver Center
Fri 07:07:16 PM 38.1839 -106.7375 138° Southeast 327 376 21,000  Level Denver Center
Fri 07:08:18 PM 38.1142 -106.6600 139° Southeast 331 381 21,000 -242 Level Denver Center
Fri 07:09:20 PM 38.0458 -106.5833 139° Southeast 332 382 20,500 -1,113 Descending Denver Center
Fri 07:10:22 PM 37.9717 -106.5003 139° Southeast 310 357 18,700 -1,355 Descending Denver Center
Fri 07:11:24 PM 37.9056 -106.4286 139° Southeast 303 349 17,700 -927 Descending Denver Center
Fri 07:12:25 PM 37.8547 -106.3739 140° Southeast 297 342 16,800 -488 Descending Denver Center
Fri 07:13:27 PM 37.7897 -106.3278 151° Southeast 302 348 16,700 -435 Descending Denver Center
Fri 07:14:29 PM 37.7161 -106.2936 160° South 272 313 15,900 -387 Descending Denver Center
Fri 07:15:31 PM 37.6506 -106.2661 162° South 264 304 15,900 -48 Level Denver Center
Fri 07:16:33 PM 37.5675 -106.2428 167° South 266 306 15,800 -48 Descending Denver Center
Fri 07:17:35 PM 37.5111 -106.1978 148° Southeast 271 312 15,800 -146 Level Denver Center
Fri 07:18:36 PM 37.4567 -106.1272 134° Southeast 276 318 15,500 -295 Descending Denver Center

Login

Don't have an account? Register now (free) for customized features, flight alerts, and more!